createdAt,value
2018-07-19T00:02:20.592Z,96062.60
2018-07-19T00:04:51.108Z,96065.64
2018-07-19T00:07:21.620Z,96058.43
2018-07-19T00:09:52.395Z,96060.13
2018-07-19T00:12:23.332Z,96054.76
2018-07-19T00:14:54.063Z,96055.49
2018-07-19T00:17:24.592Z,96052.11
2018-07-19T00:19:55.180Z,96048.07
2018-07-19T00:22:25.536Z,96050.72
2018-07-19T00:24:56.147Z,96057.33
2018-07-19T00:27:26.791Z,96055.45
2018-07-19T00:29:57.360Z,96054.36
2018-07-19T00:32:27.755Z,96056.84
2018-07-19T00:34:58.307Z,96058.66
2018-07-19T00:37:28.840Z,96065.27
2018-07-19T00:39:59.954Z,96060.14
2018-07-19T00:42:30.353Z,96063.67
2018-07-19T00:45:00.767Z,96063.44
2018-07-19T00:47:31.403Z,96063.73
2018-07-19T00:50:01.976Z,96060.48
2018-07-19T00:52:32.624Z,96057.67
2018-07-19T00:55:03.023Z,96060.30
2018-07-19T00:57:33.567Z,96062.84
2018-07-19T01:00:04.193Z,96059.13
2018-07-19T01:02:34.610Z,96057.72
2018-07-19T01:05:05.800Z,96056.28
2018-07-19T01:07:36.352Z,96052.98
2018-07-19T01:10:06.945Z,96052.75
2018-07-19T01:12:37.457Z,96047.70
2018-07-19T01:15:08.341Z,96036.97
2018-07-19T01:17:38.914Z,96043.77
2018-07-19T01:20:09.268Z,96051.45
2018-07-19T01:22:40.063Z,96049.87
2018-07-19T01:25:10.599Z,96050.96
2018-07-19T01:27:41.160Z,96047.16
2018-07-19T01:30:12.214Z,96047.33
2018-07-19T01:32:42.754Z,96044.54
2018-07-19T01:35:13.305Z,96041.52
2018-07-19T01:37:44.118Z,96050.64
2018-07-19T01:40:14.990Z,96045.23
2018-07-19T01:42:46.180Z,96046.61
2018-07-19T01:45:17.236Z,96051.33
2018-07-19T01:47:47.789Z,96048.19
2018-07-19T01:50:18.331Z,96049.92
2018-07-19T01:52:48.513Z,96044.02
2018-07-19T01:55:19.041Z,96043.09
2018-07-19T01:57:49.598Z,96045.96
2018-07-19T02:00:20.558Z,96040.87
2018-07-19T02:02:51.104Z,96037.78
2018-07-19T02:05:21.660Z,96038.73
2018-07-19T02:07:51.969Z,96043.03
2018-07-19T02:10:22.522Z,96040.02
2018-07-19T02:12:53.159Z,96038.58
2018-07-19T02:15:23.693Z,96036.09
2018-07-19T02:17:54.281Z,96043.28
2018-07-19T02:20:24.828Z,96036.05
2018-07-19T02:22:55.375Z,96038.04
2018-07-19T02:25:25.903Z,96034.89
2018-07-19T02:27:56.421Z,96037.69
2018-07-19T02:30:27.063Z,96032.75
2018-07-19T02:32:57.719Z,96030.77
2018-07-19T02:35:28.253Z,96029.52
2018-07-19T02:37:58.842Z,96031.22
2018-07-19T02:40:29.413Z,96030.83
2018-07-19T02:42:59.927Z,96027.22
2018-07-19T02:45:30.443Z,96025.16
2018-07-19T02:48:00.779Z,96032.38
2018-07-19T02:50:31.351Z,96027.15
2018-07-19T02:53:01.871Z,96027.20
2018-07-19T02:55:32.425Z,96026.25
2018-07-19T02:58:03.009Z,96026.15
2018-07-19T03:00:33.561Z,96032.55
2018-07-19T03:03:04.157Z,96031.61
2018-07-19T03:05:35.007Z,96035.43
2018-07-19T03:08:06.029Z,96032.14
2018-07-19T03:10:36.055Z,96033.03
2018-07-19T03:13:06.093Z,96033.80
2018-07-19T03:15:35.891Z,96032.18
2018-07-19T03:18:05.968Z,96024.09
2018-07-19T03:20:36.029Z,96027.92
2018-07-19T03:23:05.999Z,96034.39
2018-07-19T03:25:36.177Z,96029.22
2018-07-19T03:28:06.383Z,96027.17
2018-07-19T03:30:36.719Z,96030.17
2018-07-19T03:33:07.083Z,96032.61
2018-07-19T03:35:36.873Z,96034.86
2018-07-19T03:38:06.941Z,96041.53
2018-07-19T03:40:36.975Z,96037.39
2018-07-19T03:43:07.071Z,96043.15
2018-07-19T03:45:37.107Z,96042.54
2018-07-19T03:48:07.473Z,96034.17
2018-07-19T03:50:37.865Z,96040.14
2018-07-19T03:53:07.951Z,96045.98
2018-07-19T03:55:37.999Z,96038.77
2018-07-19T03:58:07.877Z,96043.25
2018-07-19T04:00:38.468Z,96036.05
2018-07-19T04:03:08.688Z,96035.55
2018-07-19T04:05:38.638Z,96033.58
2018-07-19T04:08:08.656Z,96027.36
2018-07-19T04:10:38.688Z,96024.61
2018-07-19T04:13:08.739Z,96031.05
2018-07-19T04:15:38.729Z,96032.44
2018-07-19T04:18:08.533Z,96035.25
2018-07-19T04:20:39.069Z,96041.55
2018-07-19T04:23:09.439Z,96037.06
2018-07-19T04:25:39.480Z,96039.34
2018-07-19T04:28:10.017Z,96042.91
2018-07-19T04:30:41.065Z,96048.59
2018-07-19T04:33:11.947Z,96049.23
2018-07-19T04:35:42.785Z,96043.02
2018-07-19T04:38:13.402Z,96056.78
2018-07-19T04:40:43.919Z,96057.50
2018-07-19T04:43:14.549Z,96053.37
2018-07-19T04:45:45.139Z,96059.58
2018-07-19T04:48:15.733Z,96057.38
2018-07-19T04:50:46.233Z,96056.07
2018-07-19T04:53:16.806Z,96059.22
2018-07-19T04:55:47.335Z,96060.84
2018-07-19T04:58:18.297Z,96057.34
2018-07-19T05:00:48.866Z,96062.52
2018-07-19T05:03:19.144Z,96058.52
2018-07-19T05:05:50.693Z,96067.06
2018-07-19T05:08:20.753Z,96069.17
2018-07-19T05:10:51.035Z,96064.44
2018-07-19T05:13:21.287Z,96061.48
2018-07-19T05:15:51.566Z,96059.33
2018-07-19T05:18:21.804Z,96061.54
2018-07-19T05:20:52.191Z,96059.92
2018-07-19T05:23:22.823Z,96065.90
2018-07-19T05:25:53.115Z,96059.46
2018-07-19T05:28:23.779Z,96055.63
2018-07-19T05:30:54.001Z,96070.35
2018-07-19T05:33:24.638Z,96061.27
2018-07-19T05:35:54.996Z,96060.16
2018-07-19T05:38:25.084Z,96048.30
2018-07-19T05:40:55.954Z,96050.72
2018-07-19T05:43:26.479Z,96058.52
2018-07-19T05:45:57.066Z,96057.62
2018-07-19T05:48:28.229Z,96061.80
2018-07-19T05:50:59.076Z,96062.30
2018-07-19T05:53:29.604Z,96068.36
2018-07-19T05:56:00.076Z,96062.44
2018-07-19T05:58:30.588Z,96059.77
2018-07-19T06:01:01.156Z,96066.18
2018-07-19T06:03:31.682Z,96067.09
2018-07-19T06:06:02.238Z,96061.86
2018-07-19T06:08:32.742Z,96066.24
2018-07-19T06:11:03.292Z,96065.67
2018-07-19T06:13:33.800Z,96064.31
2018-07-19T06:16:04.455Z,96073.08
2018-07-19T06:18:34.986Z,96065.38
2018-07-19T06:21:06.026Z,96070.19
2018-07-19T06:23:36.630Z,96069.09
2018-07-19T06:26:07.246Z,96078.33
2018-07-19T06:28:37.848Z,96071.00
2018-07-19T06:31:08.414Z,96083.39
2018-07-19T06:33:39.007Z,96078.34
2018-07-19T06:36:09.599Z,96074.17
2018-07-19T06:38:40.166Z,96082.02
2018-07-19T06:41:10.745Z,96089.42
2018-07-19T06:43:41.658Z,96089.86
2018-07-19T06:46:12.362Z,96088.80
2018-07-19T06:48:42.964Z,96085.24
2018-07-19T06:51:13.332Z,96083.82
2018-07-19T06:53:43.901Z,96091.39
2018-07-19T06:56:14.694Z,96087.56
2018-07-19T06:58:45.718Z,96090.48
2018-07-19T07:01:16.642Z,96086.16
2018-07-19T07:03:46.816Z,96087.31
2018-07-19T07:06:17.446Z,96088.91
2018-07-19T07:08:47.990Z,96080.77
2018-07-19T07:11:18.384Z,96081.43
2018-07-19T07:13:49.118Z,96081.45
2018-07-19T07:16:19.674Z,96077.28
2018-07-19T07:18:50.218Z,96078.34
2018-07-19T07:21:21.441Z,96073.68
2018-07-19T07:23:51.922Z,96074.90
2018-07-19T07:26:24.435Z,96073.02
2018-07-19T07:28:55.080Z,96074.88
2018-07-19T07:31:25.655Z,96079.89
2018-07-19T07:33:56.576Z,96080.03
2018-07-19T07:36:27.264Z,96085.67
2018-07-19T07:38:57.873Z,96083.11
2018-07-19T07:41:28.434Z,96091.72
2018-07-19T07:43:59.398Z,96084.31
2018-07-19T07:46:29.978Z,96088.55
2018-07-19T07:49:00.573Z,96089.67
2018-07-19T07:51:31.158Z,96096.11
2018-07-19T07:54:01.773Z,96099.44
2018-07-19T07:56:32.168Z,96096.48
2018-07-19T07:59:02.884Z,96100.15
2018-07-19T08:01:33.925Z,96094.41
2018-07-19T08:04:05.032Z,96097.06
2018-07-19T08:06:35.858Z,96097.24
2018-07-19T08:09:08.775Z,96099.69
2018-07-19T08:11:39.416Z,96101.63
2018-07-19T08:14:10.329Z,96100.31
2018-07-19T08:16:40.936Z,96098.41
2018-07-19T08:19:11.310Z,96096.85
2018-07-19T08:21:42.114Z,96095.17
2018-07-19T08:24:12.634Z,96091.13
2018-07-19T08:26:43.015Z,96097.17
2018-07-19T08:29:13.357Z,96085.27
2018-07-19T08:31:43.959Z,96097.77
2018-07-19T08:34:14.537Z,96094.36
2018-07-19T08:36:45.759Z,96087.22
2018-07-19T08:39:16.354Z,96086.35
2018-07-19T08:41:47.020Z,96093.98
2018-07-19T08:44:17.631Z,96092.59
2018-07-19T08:46:48.215Z,96091.69
2018-07-19T08:49:19.103Z,96099.22
2018-07-19T08:51:50.015Z,96099.73
2018-07-19T08:54:20.596Z,96099.89
2018-07-19T08:56:51.438Z,96099.56
2018-07-19T08:59:22.053Z,96085.02
2018-07-19T09:01:52.796Z,96081.88
2018-07-19T09:04:23.190Z,96090.42
2018-07-19T09:06:53.899Z,96089.33
2018-07-19T09:09:24.484Z,96077.03
2018-07-19T09:11:55.167Z,96089.91
2018-07-19T09:14:25.744Z,96085.66
2018-07-19T09:16:56.358Z,96081.31
2018-07-19T09:19:27.228Z,96092.09
2018-07-19T09:21:57.738Z,96084.80
2018-07-19T09:24:28.339Z,96086.03
2018-07-19T09:26:59.193Z,96088.06
2018-07-19T09:29:29.807Z,96084.00
2018-07-19T09:32:00.649Z,96072.09
2018-07-19T09:34:31.195Z,96082.56
2018-07-19T09:37:01.901Z,96074.53
2018-07-19T09:39:32.594Z,96070.80
2018-07-19T09:42:03.626Z,96073.34
2018-07-19T09:44:34.263Z,96078.63
2018-07-19T09:47:05.004Z,96072.14
2018-07-19T09:49:35.511Z,96070.66
2018-07-19T09:52:06.667Z,96082.45
2018-07-19T09:55:02.155Z,96083.52
2018-07-19T09:57:33.072Z,96069.35
2018-07-19T10:00:03.375Z,96081.16
2018-07-19T10:02:33.867Z,96066.50
2018-07-19T10:05:04.387Z,96069.66
2018-07-19T10:07:34.900Z,96063.58
2018-07-19T10:10:05.709Z,96071.14
2018-07-19T10:12:36.211Z,96063.80
2018-07-19T10:15:06.898Z,96064.73
2018-07-19T10:17:37.454Z,96055.77
2018-07-19T10:20:08.267Z,96058.21
2018-07-19T10:22:38.695Z,96061.27
2018-07-19T10:25:09.483Z,96054.36
2018-07-19T10:27:39.962Z,96054.58
2018-07-19T10:30:10.533Z,96053.72
2018-07-19T10:32:41.506Z,96049.12
2018-07-19T10:35:12.295Z,96058.84
2018-07-19T10:37:42.428Z,96047.30
2018-07-19T10:40:12.995Z,96047.34
2018-07-19T10:46:20.259Z,96051.66
2018-07-19T10:48:50.811Z,96055.35
2018-07-19T10:51:21.209Z,96041.83
2018-07-19T10:53:51.544Z,96040.40
2018-07-19T10:56:22.173Z,96040.48
2018-07-19T10:58:52.605Z,96045.02
2018-07-19T11:01:22.993Z,96037.63
2018-07-19T11:03:53.279Z,96040.00
2018-07-19T11:06:23.609Z,96030.06
2018-07-19T11:08:54.365Z,96030.98
2018-07-19T11:11:24.981Z,96031.27
2018-07-19T11:13:54.997Z,96033.16
2018-07-19T11:16:25.442Z,96033.67
2018-07-19T11:18:55.943Z,96031.17
2018-07-19T11:21:26.243Z,96030.13
2018-07-19T11:23:56.619Z,96025.81
2018-07-19T11:26:26.901Z,96022.13
2018-07-19T11:28:56.915Z,96015.77
2018-07-19T11:31:27.271Z,96022.52
2018-07-19T11:33:57.529Z,96019.86
2018-07-19T11:36:27.541Z,96019.72
2018-07-19T11:38:57.674Z,96013.98
2018-07-19T11:41:28.314Z,96015.33
2018-07-19T11:43:58.524Z,96002.13
2018-07-19T11:46:28.589Z,95992.44
2018-07-19T11:48:58.871Z,96007.59
2018-07-19T11:51:29.253Z,95997.65
2018-07-19T11:53:59.257Z,95993.98
2018-07-19T11:56:29.693Z,95996.17
2018-07-19T11:59:00.113Z,95991.41
2018-07-19T12:01:30.125Z,95997.77
2018-07-19T12:04:00.451Z,95991.92
2018-07-19T12:06:30.475Z,95988.31
2018-07-19T12:09:00.491Z,95977.94
2018-07-19T12:11:30.578Z,95985.88
2018-07-19T12:14:00.615Z,95983.16
2018-07-19T12:16:30.563Z,95993.70
2018-07-19T12:19:00.584Z,95973.19
2018-07-19T12:21:31.135Z,95970.11
2018-07-19T12:24:01.450Z,95966.45
2018-07-19T12:26:31.705Z,95967.27
2018-07-19T12:29:01.681Z,95967.13
2018-07-19T12:31:31.720Z,95961.43
2018-07-19T12:34:01.938Z,95959.79
2018-07-19T12:36:31.909Z,95961.38
2018-07-19T12:39:01.893Z,95960.27
2018-07-19T12:41:31.570Z,95978.48
2018-07-19T12:44:01.535Z,95965.69
2018-07-19T12:46:31.595Z,95959.63
2018-07-19T12:49:01.603Z,95963.38
2018-07-19T12:51:31.763Z,95965.58
2018-07-19T12:54:02.069Z,95952.09
2018-07-19T12:56:32.186Z,95957.25
2018-07-19T12:59:02.354Z,95946.53
2018-07-19T13:01:32.858Z,95950.14
2018-07-19T13:04:02.865Z,95936.23
2018-07-19T13:06:32.859Z,95946.34
2018-07-19T13:09:02.942Z,95933.69
2018-07-19T13:11:32.868Z,95943.67
2018-07-19T13:14:03.722Z,95933.66
2018-07-19T13:16:33.900Z,95927.86
2018-07-19T13:19:04.016Z,95933.34
2018-07-19T13:21:34.229Z,95912.14
2018-07-19T13:24:04.582Z,95924.31
2018-07-19T13:26:35.054Z,95923.95
2018-07-19T13:29:05.193Z,95932.91
2018-07-19T13:31:40.044Z,95932.02
2018-07-19T13:34:10.082Z,95925.32
2018-07-19T13:36:40.470Z,95936.42
2018-07-19T13:39:11.114Z,95933.53
2018-07-19T13:41:41.470Z,95936.16
2018-07-19T13:44:11.774Z,95928.28
2018-07-19T13:46:41.766Z,95933.53
2018-07-19T13:49:11.726Z,95932.78
2018-07-19T13:51:41.694Z,95930.84
2018-07-19T13:54:15.304Z,95918.37
2018-07-19T13:56:45.546Z,95921.66
2018-07-19T13:59:16.189Z,95924.05
2018-07-19T14:01:46.476Z,95915.56
2018-07-19T14:04:16.460Z,95917.58
2018-07-19T14:06:46.476Z,95921.09
2018-07-19T14:09:16.456Z,95916.67
2018-07-19T14:11:46.424Z,95905.94
2018-07-19T14:14:16.386Z,95916.52
2018-07-19T14:16:46.302Z,95909.78
2018-07-19T14:19:16.374Z,95907.12
2018-07-19T14:21:46.830Z,95912.44
2018-07-19T14:24:16.850Z,95899.47
2018-07-19T14:26:46.797Z,95899.81
2018-07-19T14:29:16.785Z,95896.38
2018-07-19T14:31:46.742Z,95899.55
2018-07-19T14:34:16.763Z,95883.59
2018-07-19T14:36:46.734Z,95880.27
2018-07-19T14:39:17.309Z,95880.33
2018-07-19T14:41:47.262Z,95880.75
2018-07-19T14:44:17.222Z,95881.69
2018-07-19T14:46:47.173Z,95880.78
2018-07-19T14:49:17.178Z,95880.63
2018-07-19T14:51:47.527Z,95885.13
2018-07-19T14:54:17.498Z,95886.03
2018-07-19T14:56:47.402Z,95872.88
2018-07-19T14:59:18.200Z,95883.86
2018-07-19T15:01:48.158Z,95864.88
2018-07-19T15:04:17.854Z,95871.20
2018-07-19T15:06:48.081Z,95882.19
2018-07-19T15:09:18.398Z,95870.81
2018-07-19T15:11:48.332Z,95864.12
2018-07-19T15:14:18.566Z,95873.52
2018-07-19T15:16:48.791Z,95864.44
2018-07-19T15:19:18.723Z,95869.33
2018-07-19T15:21:48.692Z,95864.71
2018-07-19T15:24:18.622Z,95859.12
2018-07-19T15:26:48.566Z,95859.88
2018-07-19T15:29:18.568Z,95864.03
2018-07-19T15:31:48.512Z,95859.22
2018-07-19T15:34:18.529Z,95862.36
2018-07-19T15:36:48.733Z,95850.89
2018-07-19T15:39:18.751Z,95842.80
2018-07-19T15:41:49.060Z,95854.47
2018-07-19T15:44:18.760Z,95850.30
2018-07-19T15:46:48.766Z,95837.42
2018-07-19T15:49:19.212Z,95844.77
2018-07-19T15:51:48.852Z,95841.44
2018-07-19T15:54:18.828Z,95837.15
2018-07-19T15:56:49.171Z,95832.66
2018-07-19T15:59:19.236Z,95824.81
2018-07-19T16:01:49.589Z,95826.14
2018-07-19T16:04:19.612Z,95822.69
2018-07-19T16:06:49.598Z,95827.20
2018-07-19T16:09:19.682Z,95822.27
2018-07-19T16:11:49.709Z,95825.33
2018-07-19T16:14:19.737Z,95819.86
2018-07-19T16:16:49.730Z,95821.27
2018-07-19T16:19:19.784Z,95820.50
2018-07-19T16:21:49.775Z,95816.56
2018-07-19T16:31:08.339Z,95811.39
2018-07-19T16:33:38.327Z,95814.39
2018-07-19T16:36:08.734Z,95803.19
2018-07-19T16:38:38.895Z,95809.91
2018-07-19T16:41:09.139Z,95820.40
2018-07-19T16:43:39.159Z,95809.79
2018-07-19T16:46:09.159Z,95813.60
2018-07-19T16:48:39.155Z,95817.17
2018-07-19T16:51:09.618Z,95814.63
2018-07-19T16:53:39.694Z,95805.14
2018-07-19T16:56:09.851Z,95811.02
2018-07-19T16:58:39.819Z,95814.48
2018-07-19T17:01:09.797Z,95813.11
2018-07-19T17:03:39.821Z,95806.88
2018-07-19T17:06:09.993Z,95808.06
2018-07-19T17:08:40.155Z,95809.84
2018-07-19T17:11:10.259Z,95809.80
2018-07-19T17:13:40.345Z,95808.04
2018-07-19T17:16:10.473Z,95811.28
2018-07-19T17:18:40.613Z,95808.01
2018-07-19T17:21:10.789Z,95814.08
2018-07-19T17:23:41.047Z,95815.92
2018-07-19T17:26:12.647Z,95812.98
2018-07-19T17:28:42.777Z,95803.70
2018-07-19T17:31:12.805Z,95809.02
2018-07-19T17:33:42.978Z,95814.08
2018-07-19T17:36:13.105Z,95810.09
2018-07-19T17:38:43.223Z,95812.91
2018-07-19T17:41:12.964Z,95817.25
2018-07-19T17:43:43.005Z,95820.94
2018-07-19T17:46:13.272Z,95813.92
2018-07-19T17:48:43.400Z,95817.83
2018-07-19T17:51:13.721Z,95815.23
2018-07-19T17:53:43.943Z,95818.95
2018-07-19T17:56:14.315Z,95815.69
2018-07-19T17:58:44.494Z,95816.56
2018-07-19T18:01:14.649Z,95820.77
2018-07-19T18:03:45.213Z,95822.48
2018-07-19T18:06:15.384Z,95813.95
2018-07-19T18:08:45.470Z,95820.86
2018-07-19T18:11:15.581Z,95818.84
2018-07-19T18:13:45.984Z,95819.72
2018-07-19T18:16:16.765Z,95815.91
2018-07-19T18:18:46.874Z,95817.45
2018-07-19T18:21:17.068Z,95818.73
2018-07-19T18:23:47.141Z,95819.58
2018-07-19T18:26:17.201Z,95821.22
2018-07-19T18:28:47.821Z,95823.89
2018-07-19T18:31:17.951Z,95821.22
2018-07-19T18:33:48.088Z,95820.81
2018-07-19T18:36:18.457Z,95828.29
2018-07-19T18:38:48.527Z,95825.80
2018-07-19T18:41:18.587Z,95833.03
2018-07-19T18:43:48.690Z,95828.27
2018-07-19T18:46:19.352Z,95832.05
2018-07-19T18:48:49.463Z,95830.28
2018-07-19T18:51:19.843Z,95829.68
2018-07-19T18:53:50.281Z,95829.02
2018-07-19T18:56:20.691Z,95831.84
2018-07-19T18:58:51.227Z,95838.23
2018-07-19T19:01:21.591Z,95837.04
2018-07-19T19:03:52.316Z,95836.29
2018-07-19T19:06:22.716Z,95839.12
2018-07-19T19:08:53.441Z,95843.42
2018-07-19T19:11:23.897Z,95841.99
2018-07-19T19:13:54.440Z,95850.59
2018-07-19T19:16:24.829Z,95850.37
2018-07-19T19:18:55.281Z,95848.26
2018-07-19T19:21:26.180Z,95854.06
2018-07-19T19:23:56.801Z,95855.42
2018-07-19T19:26:27.234Z,95852.58
2018-07-19T19:28:57.669Z,95852.50
2018-07-19T19:31:28.111Z,95852.19
2018-07-19T19:33:58.507Z,95850.48
2018-07-19T19:36:28.946Z,95849.64
2018-07-19T19:38:59.375Z,95848.87
2018-07-19T19:41:29.887Z,95846.13
2018-07-19T19:44:00.368Z,95844.02
2018-07-19T19:46:30.789Z,95850.74
2018-07-19T19:49:01.181Z,95857.30
2018-07-19T19:51:31.605Z,95855.32
2018-07-19T19:54:02.059Z,95859.17
2018-07-19T19:56:32.465Z,95854.33
2018-07-19T19:59:02.890Z,95858.38
2018-07-19T20:01:33.381Z,95860.31
2018-07-19T20:04:04.116Z,95852.16
2018-07-19T20:06:34.609Z,95861.36
2018-07-19T20:09:12.293Z,95865.07
2018-07-19T20:11:42.651Z,95860.95
2018-07-19T20:14:13.118Z,95864.98
2018-07-19T20:16:43.509Z,95857.98
2018-07-19T20:19:14.206Z,95859.49
2018-07-19T20:21:44.637Z,95864.59
2018-07-19T20:24:16.797Z,95861.41
2018-07-19T20:26:47.235Z,95857.03
2018-07-19T20:29:17.652Z,95871.91
2018-07-19T20:31:49.639Z,95868.25
2018-07-19T20:34:20.564Z,95872.96
2018-07-19T20:36:51.353Z,95868.48
2018-07-19T20:39:21.943Z,95875.44
2018-07-19T20:41:52.319Z,95873.33
2018-07-19T20:44:22.776Z,95871.76
2018-07-19T20:46:53.132Z,95875.49
2018-07-19T20:49:23.561Z,95876.21
2018-07-19T20:51:54.287Z,95880.35
2018-07-19T20:54:24.757Z,95878.42
2018-07-19T20:56:56.440Z,95877.96
2018-07-19T20:59:27.022Z,95877.29
2018-07-19T21:01:57.418Z,95877.65
2018-07-19T21:04:27.919Z,95871.23
2018-07-19T21:06:58.393Z,95874.77
2018-07-19T21:09:30.183Z,95877.03
2018-07-19T21:12:02.201Z,95875.42
2018-07-19T21:14:32.633Z,95875.78
2018-07-19T21:17:03.371Z,95880.47
2018-07-19T21:19:33.772Z,95882.53
2018-07-19T21:22:04.199Z,95878.89
2018-07-19T21:24:34.778Z,95879.41
2018-07-19T21:27:05.228Z,95882.03
2018-07-19T21:29:35.648Z,95887.02
2018-07-19T21:32:06.088Z,95882.33
2018-07-19T21:34:36.534Z,95883.42
2018-07-19T21:37:07.147Z,95879.55
2018-07-19T21:39:37.212Z,95875.25
2018-07-19T21:42:08.416Z,95882.77
2018-07-19T21:44:38.828Z,95879.41
2018-07-19T21:47:10.000Z,95885.48
2018-07-19T21:49:40.532Z,95886.42
2018-07-19T21:52:10.952Z,95880.48
2018-07-19T21:54:41.465Z,95882.09
2018-07-19T21:57:12.434Z,95878.25
2018-07-19T21:59:42.841Z,95880.73
2018-07-19T22:02:14.968Z,95885.11
2018-07-19T22:04:45.430Z,95881.65
2018-07-19T22:07:16.050Z,95876.92
2018-07-19T22:09:46.816Z,95877.56
2018-07-19T22:12:17.158Z,95879.38
2018-07-19T22:14:47.518Z,95888.30
2018-07-19T22:17:18.166Z,95887.06
2018-07-19T22:19:48.651Z,95893.37
2018-07-19T22:22:19.035Z,95894.02
2018-07-19T22:24:49.873Z,95892.63
2018-07-19T22:27:20.328Z,95889.89
2018-07-19T22:29:52.370Z,95895.55
2018-07-19T22:32:22.796Z,95894.75
2018-07-19T22:34:56.538Z,95899.69
2018-07-19T22:37:27.746Z,95893.52
2018-07-19T22:39:58.097Z,95886.23
2018-07-19T22:42:28.478Z,95896.27
2018-07-19T22:44:59.934Z,95892.44
2018-07-19T22:47:30.291Z,95887.66
2018-07-19T22:50:03.165Z,95890.14
2018-07-19T22:52:36.342Z,95883.22
2018-07-19T22:55:08.974Z,95886.76
2018-07-19T22:57:39.370Z,95883.08
2018-07-19T23:00:13.711Z,95883.67
2018-07-19T23:02:44.370Z,95883.23
2018-07-19T23:05:15.060Z,95885.85
2018-07-19T23:07:50.206Z,95887.22
2018-07-19T23:10:20.620Z,95883.05
2018-07-19T23:12:50.948Z,95880.89
2018-07-19T23:15:21.332Z,95883.53
2018-07-19T23:17:51.656Z,95883.22
2018-07-19T23:20:22.202Z,95887.52
2018-07-19T23:22:57.644Z,95892.77
2018-07-19T23:25:28.022Z,95889.53
2018-07-19T23:28:00.061Z,95892.94
2018-07-19T23:30:32.892Z,95896.33
2018-07-19T23:33:03.346Z,95886.61
2018-07-19T23:36:41.535Z,95890.32
2018-07-19T23:39:21.167Z,95887.22
2018-07-19T23:42:00.920Z,95889.69
2018-07-19T23:44:36.204Z,95895.70
2018-07-19T23:47:11.018Z,95885.25
2018-07-19T23:49:41.616Z,95884.92
2018-07-19T23:52:12.048Z,95886.01
2018-07-19T23:54:42.388Z,95883.38
2018-07-19T23:57:12.780Z,95885.56
2018-07-19T23:59:43.178Z,95878.00
